ADDS METAR Data INFO
IDs: Format: Raw Decoded Include TAF

Data at: 1507 UTC 21 Feb 2018

KTRI 201453Z 17003KT 10SM SCT250 20/13 A3037 RMK AO2 SLP265 T02000133 51010
KTRI 211353Z 00000KT 10SM FEW050 SCT085 20/16 A3039 RMK AO2 SLP270 T02000161
KTRI 211253Z 00000KT 10SM FEW049 SCT085 19/16 A3037 RMK AO2 RAE1159 SLP265 P0000 T01890161
KTRI 201453Z 17003KT 10SM SCT250 20/13 A3037 RMK AO2 SLP265 T02000133 51010
KTRI 201353Z 00000KT 10SM SCT250 17/14 A3036 RMK AO2 SLP265 T01670139
KTRI 201253Z 00000KT 10SM SCT250 11/11 A3035 RMK AO2 SLP265 T01060106
KTRI 201153Z 00000KT 10SM SCT250 11/11 A3033 RMK AO2 SLP258 T01060106 10117 20094 51010 $
KTRI 201053Z 00000KT 10SM SCT250 10/10 A3033 RMK AO2 SLP255 T01000100 $
KTRI 200953Z 00000KT 10SM SCT250 11/11 A3032 RMK AO2 SLP250 T01060106 $
KTRI 200853Z 00000KT 10SM SCT250 11/11 A3030 RMK AO2 SLP244 T01060106 58002 $
KTRI 200753Z 00000KT 10SM SCT250 12/11 A3031 RMK AO2 SLP245 T01170106 $
KTRI 200653Z 00000KT 10SM SCT250 11/11 A3031 RMK AO2 SLP246 T01110106 $
KTRI 200553Z 00000KT 10SM BKN250 12/11 A3031 RMK AO2 SLP246 T01170106 10172 20111 53005 $
KTRI 200453Z 00000KT 10SM BKN250 12/11 A3031 RMK AO2 SLP246 T01220111 402330100 $
KTRI 200353Z 00000KT 10SM BKN250 12/12 A3030 RMK AO2 SLP246 T01170117 $